• Join FlightAware (Why Join?)
  • Login
  • US Flag 
06:16AM EDT


 

Airport Tracker/Info


-or-


 

Live Flight TrackerFlight Track Log ✈ EJA929 ✈ 17-May-2013 ✈ KTPA - KPDK

Flight Track Log - Related Links

Times and Time Zones

All times are in EDT time to prevent confusion due to time zone crossing. See the EJA929 flight status page for this flight to view local times or setup timezone preferences in your user account.

Time Position Orientation Groundspeed Altitude Reporting Facility
EDT Latitude Longitude Course Direction KTS MPH feet Rate Location/Type
03:57PM 27.9500 -82.5333 211° Southwest 169 194 1,100  Level Tampa TRACON
03:58PM 27.9000 -82.5667 211° Southwest 225 259 6,000 4,080 Climbing Tampa TRACON
03:59PM 27.8833 -82.6333 254° West 248 285 11,000 2,700 Climbing Tampa TRACON
04:00PM 27.9833 -82.6500 352° North 379 436 12,000 900 Climbing Tampa TRACON
04:03PM 28.2228 -82.7206 345° North 402 463 14,100 1,080 Climbing Jacksonville Center
04:04PM 28.3292 -82.7486 347° North 396 456 15,700 1,500 Climbing Jacksonville Center
04:05PM 28.4378 -82.7769 347° North 391 450 17,200 1,440 Climbing Jacksonville Center
04:06PM 28.5442 -82.8075 346° North 391 450 18,600 1,440 Climbing Jacksonville Center
04:07PM 28.6444 -82.8619 335° Northwest 391 450 20,100 1,680 Climbing Jacksonville Center
04:08PM 28.7489 -82.9306 330° Northwest 391 450 22,000 1,800 Climbing Jacksonville Center
04:09PM 28.8428 -82.9992 327° Northwest 396 456 23,800 1,800 Climbing Jacksonville Center
04:10PM 28.9408 -83.0658 329° Northwest 401 461 25,600 1,800 Climbing Jacksonville Center
04:11PM 29.0367 -83.1325 329° Northwest 406 467 27,400 1,800 Climbing Jacksonville Center
04:12PM 29.1347 -83.2017 328° Northwest 411 473 29,200 1,260 Climbing Jacksonville Center
04:13PM 29.2389 -83.2733 329° Northwest 416 479 30,000 360 Climbing Jacksonville Center
04:14PM 29.3514 -83.3525 328° Northwest 445 512 30,000  Level Jacksonville Center
04:15PM 29.4658 -83.4364 327° Northwest 473 544 30,000  Level Jacksonville Center
04:16PM 29.5864 -83.5183 329° Northwest 484 557 30,000  Level Jacksonville Center
04:17PM 29.7031 -83.6003 329° Northwest 489 563 30,000  Level Jacksonville Center
04:18PM 29.8214 -83.6850 328° Northwest 489 563 30,000  Level Jacksonville Center
04:19PM 29.9378 -83.7675 328° Northwest 489 563 30,000  Level Jacksonville Center
04:20PM 30.0583 -83.8525 329° Northwest 489 563 30,000  Level Jacksonville Center
04:21PM 30.1744 -83.9353 328° Northwest 489 563 30,000  Level Jacksonville Center
04:22PM 30.2950 -84.0186 329° Northwest 494 568 30,000  Level Jacksonville Center
04:23PM 30.4025 -84.1208 321° Northwest 494 568 30,000  Level Jacksonville Center
04:24PM 30.4725 -84.2375 305° West 478 550 30,000  Level Jacksonville Center
04:25PM 30.5586 -84.3592 309° West 489 563 30,000  Level Jacksonville Center
04:26PM 30.6894 -84.4217 338° Northwest 488 562 30,000  Level Jacksonville Center
04:27PM 30.8269 -84.4650 345° North 490 564 30,000  Level Jacksonville Center
04:28PM 30.9683 -84.5086 345° North 502 578 30,000  Level Jacksonville Center
04:29PM 31.1033 -84.5544 344° North 507 583 30,000  Level Jacksonville Center
04:30PM 31.3633 -84.6394 344° North 506 582 30,000  Level Atlanta Center
04:31PM 31.5028 -84.6867 344° North 516 594 30,000 -120 Level Atlanta Center
04:32PM 31.6383 -84.7339 343° North 516 594 29,800 -720 Descending Atlanta Center
04:33PM 31.7758 -84.7792 344° North 511 588 28,600 -1,200 Descending Atlanta Center
04:34PM 31.9069 -84.8217 345° North 503 579 27,400 -1,200 Descending Atlanta Center
04:35PM 32.0319 -84.8644 344° North 482 555 26,200 -1,200 Descending Atlanta Center
04:36PM 32.1569 -84.9072 344° North 471 542 25,000 -1,260 Descending Atlanta Center
04:37PM 32.2944 -84.9481 346° North 459 528 23,700 -1,500 Descending Atlanta Center
04:38PM 32.4067 -84.9886 343° North 448 516 22,000 -1,860 Descending Atlanta Center
04:39PM 32.5253 -85.0267 345° North 437 503 20,000 -1,980 Descending Atlanta Center
04:40PM 32.6294 -85.0625 344° North 431 496 18,100 -2,040 Descending Atlanta Center
04:41PM 32.7397 -85.0983 345° North 425 489 16,000 -1,800 Descending Atlanta Center
04:42PM 32.8375 -85.1364 342° North 395 455 14,500 -1,500 Descending Atlanta Center
04:43PM 32.9208 -85.1622 345° North 337 388 13,000 -1,500 Descending Atlanta Center
04:44PM 33.0103 -85.1931 344° North 321 369 11,500 -1,020 Descending Atlanta Center
04:45PM 33.0981 -85.1944 359° North 308 354 11,000 -300 Descending Atlanta Center
04:46PM 33.1858 -85.1683 14° North 318 366 11,000 -420 Level Atlanta Center
04:48PM 33.3597 -85.1083 16° North 318 366 9,800 -900 Descending Atlanta Center
04:49PM 33.4414 -85.0769 18° North 306 352 8,300 -1,440 Descending Atlanta Center
04:50PM 33.5231 -85.0431 19° North 306 352 7,000 -900 Descending Atlanta Center
04:51PM 33.6025 -85.0164 16° North 306 352 6,600 -960 Descending Atlanta Center
04:52PM 33.6800 -84.9875 17° North 301 346 5,100 -840 Descending Atlanta Center
04:55PM 33.7500 -84.8333 61° Northeast 216 249 4,000 -360 Descending Atlanta TRACON
04:56PM 33.7833 -84.7833 51° Northeast 224 258 4,000  Level Atlanta TRACON
04:57PM 33.8333 -84.7333 40° Northeast 229 264 4,000  Level Atlanta TRACON
04:58PM 33.8667 -84.6833 51° Northeast 232 267 4,000  Level Atlanta TRACON
04:59PM 33.9167 -84.6167 48° Northeast 240 276 4,000  Level Atlanta TRACON
05:00PM 33.9667 -84.5667 40° Northeast 214 246 4,000 -240 Level Atlanta TRACON
05:01PM 33.9667 -84.5000 90° East 217 250 3,500 -540 Descending Atlanta TRACON
05:02PM 33.9667 -84.4333 90° East 213 245 3,000 -300 Descending Atlanta TRACON
05:03PM 33.9667 -84.3500 90° East 220 253 2,900 -180 Descending Atlanta TRACON
05:04PM 33.9667 -84.2833 90° East 202 232 2,700 -480 Descending Atlanta TRACON
05:05PM 33.9333 -84.2833 180° South 153 176 2,000 -720 Descending Atlanta TRACON
05:07PM 33.8756 -84.3020 157° South  Level Estimated
05:14PM 33.8756 -84.3020 157° South  Level Estimated
05:15PM 33.8756 -84.3020 157° South  Level Estimated